createdAt,value
2022-12-26T00:00:26.749Z,4.10
2022-12-26T00:02:53.282Z,4.20
2022-12-26T00:05:19.769Z,4.20
2022-12-26T00:07:46.742Z,3.70
2022-12-26T00:10:13.166Z,3.60
2022-12-26T00:12:39.653Z,4.10
2022-12-26T00:15:06.641Z,3.90
2022-12-26T00:17:33.065Z,3.90
2022-12-26T00:19:59.541Z,4.00
2022-12-26T00:22:25.964Z,4.20
2022-12-26T00:24:52.452Z,4.10
2022-12-26T00:27:18.939Z,3.80
2022-12-26T00:29:47.711Z,3.80
2022-12-26T00:32:14.155Z,4.00
2022-12-26T00:34:40.697Z,4.30
2022-12-26T00:37:07.155Z,4.00
2022-12-26T00:39:33.705Z,4.20
2022-12-26T00:42:00.136Z,4.20
2022-12-26T00:44:26.579Z,4.10
2022-12-26T00:46:53.024Z,4.20
2022-12-26T00:49:19.480Z,4.50
2022-12-26T00:51:46.002Z,4.60
2022-12-26T00:54:12.403Z,4.10
2022-12-26T00:56:38.862Z,4.70
2022-12-26T00:59:05.478Z,4.50
2022-12-26T01:01:32.533Z,5.00
2022-12-26T01:03:59.579Z,5.30
2022-12-26T01:06:26.053Z,5.00
2022-12-26T01:08:53.611Z,5.50
2022-12-26T01:11:38.691Z,5.20
2022-12-26T01:14:06.904Z,5.60
2022-12-26T01:16:33.649Z,6.40
2022-12-26T01:19:00.106Z,6.10
2022-12-26T01:21:26.622Z,7.10
2022-12-26T01:23:53.110Z,6.70
2022-12-26T01:26:20.201Z,6.70
2022-12-26T01:28:50.224Z,6.90
2022-12-26T01:31:17.267Z,6.90
2022-12-26T01:33:43.847Z,7.40
2022-12-26T01:36:10.525Z,7.30
2022-12-26T01:38:37.035Z,7.10
2022-12-26T01:41:21.955Z,6.90
2022-12-26T01:43:55.289Z,6.90
2022-12-26T01:46:39.523Z,6.60
2022-12-26T01:49:36.085Z,7.10
2022-12-26T01:52:28.570Z,6.70
2022-12-26T01:54:55.911Z,7.00
2022-12-26T01:57:35.763Z,7.20
2022-12-26T02:00:03.972Z,7.00
2022-12-26T02:02:31.023Z,7.10
2022-12-26T02:05:16.677Z,6.90
2022-12-26T02:07:45.962Z,6.70
2022-12-26T02:10:17.627Z,7.20
2022-12-26T02:12:44.470Z,7.70
2022-12-26T02:15:15.165Z,7.30
2022-12-26T02:17:42.637Z,6.90
2022-12-26T02:20:12.140Z,6.50
2022-12-26T02:23:01.543Z,6.60
2022-12-26T02:25:57.447Z,6.50
2022-12-26T02:28:39.063Z,7.00
2022-12-26T02:31:11.626Z,6.90
2022-12-26T02:33:48.262Z,7.40
2022-12-26T02:36:30.023Z,7.20
2022-12-26T02:39:45.542Z,7.30
2022-12-26T02:42:33.403Z,6.60
2022-12-26T02:45:24.592Z,7.10
2022-12-26T02:48:05.943Z,6.90
2022-12-26T02:51:21.792Z,7.60
2022-12-26T02:54:50.533Z,6.70
2022-12-26T02:57:40.834Z,7.60
2022-12-26T03:00:35.589Z,7.60
2022-12-26T03:03:26.595Z,7.50
2022-12-26T03:06:18.857Z,7.70
2022-12-26T03:09:11.100Z,7.40
2022-12-26T03:11:59.529Z,7.30
2022-12-26T03:14:36.049Z,7.10
2022-12-26T03:17:21.178Z,7.10
2022-12-26T03:20:01.940Z,7.60
2022-12-26T03:22:52.305Z,7.20
2022-12-26T03:25:59.915Z,7.30
2022-12-26T03:28:27.066Z,6.90
2022-12-26T03:30:55.866Z,7.10
2022-12-26T03:33:40.942Z,7.40
2022-12-26T03:36:11.763Z,7.30
2022-12-26T03:38:55.293Z,7.10
2022-12-26T03:41:52.139Z,7.00
2022-12-26T03:44:58.154Z,7.00
2022-12-26T03:47:53.571Z,6.50
2022-12-26T03:51:02.208Z,6.60
2022-12-26T03:53:57.822Z,6.30
2022-12-26T03:56:54.779Z,6.40
2022-12-26T03:59:48.146Z,5.90
2022-12-26T04:02:35.012Z,6.20
2022-12-26T04:05:24.878Z,6.20
2022-12-26T04:08:19.038Z,6.00
2022-12-26T04:11:10.607Z,6.50
2022-12-26T04:14:11.104Z,5.90
2022-12-26T04:17:01.452Z,6.10
2022-12-26T04:19:27.990Z,6.20
2022-12-26T04:22:24.813Z,6.70
2022-12-26T04:25:18.451Z,6.20
2022-12-26T04:28:03.610Z,5.80
2022-12-26T04:30:52.144Z,6.00
2022-12-26T04:33:47.302Z,6.30
2022-12-26T04:36:39.169Z,6.20
2022-12-26T04:39:29.573Z,6.10
2022-12-26T04:42:17.581Z,6.50
2022-12-26T04:44:45.903Z,6.20
2022-12-26T04:47:12.454Z,6.20
2022-12-26T04:50:02.111Z,7.10
2022-12-26T04:52:47.855Z,6.70
2022-12-26T04:55:14.348Z,6.70
2022-12-26T04:57:40.865Z,7.00
2022-12-26T05:00:07.706Z,6.50
2022-12-26T05:02:52.983Z,6.80
2022-12-26T05:05:38.339Z,6.90
2022-12-26T05:08:23.373Z,6.40
2022-12-26T05:10:49.845Z,6.50
2022-12-26T05:13:16.233Z,6.90
2022-12-26T05:16:01.446Z,7.10
2022-12-26T05:18:46.209Z,6.90
2022-12-26T05:21:33.693Z,6.50
2022-12-26T05:24:18.827Z,6.20
2022-12-26T05:27:04.032Z,6.10
2022-12-26T05:29:30.607Z,5.80
2022-12-26T05:31:57.151Z,5.60
2022-12-26T05:34:23.634Z,5.70
2022-12-26T05:36:55.333Z,5.50
2022-12-26T05:39:22.556Z,5.40
2022-12-26T05:41:49.415Z,5.10
2022-12-26T05:44:16.051Z,5.10
2022-12-26T05:46:42.659Z,5.60
2022-12-26T05:49:09.608Z,4.80
2022-12-26T05:51:36.439Z,4.80
2022-12-26T05:54:02.902Z,4.70
2022-12-26T05:56:29.438Z,5.00
2022-12-26T05:58:58.357Z,5.00
2022-12-26T06:01:25.908Z,4.60
2022-12-26T06:03:55.631Z,5.10
2022-12-26T06:06:24.939Z,4.90
2022-12-26T06:08:52.829Z,3.60
2022-12-26T06:11:20.241Z,4.00
2022-12-26T06:13:46.693Z,3.90
2022-12-26T06:16:16.379Z,4.20
2022-12-26T06:18:42.982Z,3.80
2022-12-26T06:21:12.430Z,4.30
2022-12-26T06:23:39.830Z,3.80
2022-12-26T06:26:08.974Z,3.90
2022-12-26T06:28:36.383Z,3.60
2022-12-26T06:31:04.877Z,3.50
2022-12-26T06:33:32.078Z,3.20
2022-12-26T06:36:08.032Z,3.20
2022-12-26T06:38:34.608Z,3.30
2022-12-26T06:41:01.162Z,3.20
2022-12-26T06:43:27.665Z,3.20
2022-12-26T06:45:56.143Z,3.20
2022-12-26T06:48:23.364Z,3.30
2022-12-26T06:50:50.513Z,3.90
2022-12-26T06:53:16.979Z,3.20
2022-12-26T06:55:43.374Z,3.60
2022-12-26T06:58:10.767Z,3.50
2022-12-26T07:00:37.506Z,3.50
2022-12-26T07:03:04.322Z,3.90
2022-12-26T07:05:30.819Z,4.10
2022-12-26T07:07:57.297Z,3.90
2022-12-26T07:10:23.734Z,3.90
2022-12-26T07:12:50.234Z,4.40
2022-12-26T07:15:16.806Z,5.20
2022-12-26T07:17:43.250Z,4.30
2022-12-26T07:20:10.475Z,4.50
2022-12-26T07:22:37.084Z,4.40
2022-12-26T07:25:03.725Z,4.90
2022-12-26T07:27:30.137Z,4.60
2022-12-26T07:29:56.509Z,5.40
2022-12-26T07:32:22.961Z,4.90
2022-12-26T07:34:49.333Z,5.10
2022-12-26T07:37:15.787Z,5.80
2022-12-26T07:39:42.235Z,6.20
2022-12-26T07:42:08.708Z,7.10
2022-12-26T07:44:35.229Z,7.20
2022-12-26T07:47:01.859Z,7.70
2022-12-26T07:49:28.383Z,7.30
2022-12-26T07:51:54.876Z,7.70
2022-12-26T07:54:21.380Z,7.70
2022-12-26T07:56:47.886Z,8.10
2022-12-26T07:59:16.089Z,7.40
2022-12-26T08:01:43.595Z,7.20
2022-12-26T08:04:11.830Z,7.00
2022-12-26T08:06:38.661Z,7.30
2022-12-26T08:09:05.508Z,7.30
2022-12-26T08:11:35.076Z,7.10
2022-12-26T08:14:02.160Z,6.90
2022-12-26T08:16:28.872Z,7.00
2022-12-26T08:18:55.358Z,7.00
2022-12-26T08:21:21.822Z,7.10
2022-12-26T08:23:48.604Z,6.40
2022-12-26T08:26:20.694Z,6.30
2022-12-26T08:28:47.401Z,6.50
2022-12-26T08:31:14.227Z,5.50
2022-12-26T08:33:40.763Z,6.00
2022-12-26T08:36:09.968Z,5.10
2022-12-26T08:38:37.679Z,5.60
2022-12-26T08:41:04.395Z,5.80
2022-12-26T08:43:52.812Z,5.50
2022-12-26T08:46:19.255Z,5.40
2022-12-26T08:48:46.374Z,5.50
2022-12-26T08:51:20.159Z,5.50
2022-12-26T08:53:47.101Z,5.20
2022-12-26T08:56:16.225Z,5.10
2022-12-26T08:58:43.580Z,5.20
2022-12-26T09:01:13.359Z,4.80
2022-12-26T09:03:41.222Z,4.90
2022-12-26T09:06:08.851Z,5.10
2022-12-26T09:08:36.308Z,5.00
2022-12-26T09:11:03.971Z,4.30
2022-12-26T09:13:31.573Z,4.50
2022-12-26T09:16:07.756Z,4.80
2022-12-26T09:18:34.552Z,4.60
2022-12-26T09:21:05.902Z,4.50
2022-12-26T09:23:32.792Z,4.30
2022-12-26T09:26:17.695Z,4.50
2022-12-26T09:28:46.934Z,4.30
2022-12-26T09:31:15.997Z,4.30
2022-12-26T09:33:42.835Z,4.40
2022-12-26T09:36:16.070Z,4.20
2022-12-26T09:38:44.139Z,4.50
2022-12-26T09:41:36.007Z,3.90
2022-12-26T09:44:33.223Z,3.90
2022-12-26T09:47:18.460Z,4.10
2022-12-26T09:49:55.411Z,3.90
2022-12-26T09:52:37.032Z,3.50
2022-12-26T09:55:25.353Z,3.80
2022-12-26T09:57:54.773Z,4.00
2022-12-26T10:00:27.157Z,4.10
2022-12-26T10:02:57.049Z,4.40
2022-12-26T10:05:34.107Z,5.10
2022-12-26T10:08:23.726Z,4.80
2022-12-26T10:11:02.002Z,5.40
2022-12-26T10:13:43.549Z,4.80
2022-12-26T10:16:43.366Z,5.70
2022-12-26T10:19:32.717Z,5.40
2022-12-26T10:22:28.447Z,5.70
2022-12-26T10:24:58.408Z,6.10
2022-12-26T10:27:27.570Z,6.70
2022-12-26T10:30:02.111Z,6.10
2022-12-26T10:32:37.268Z,5.90
2022-12-26T10:35:22.213Z,5.60
2022-12-26T10:37:50.419Z,6.30
2022-12-26T10:40:24.748Z,6.10
2022-12-26T10:43:31.352Z,5.90
2022-12-26T10:46:03.709Z,6.30
2022-12-26T10:48:30.220Z,6.10
2022-12-26T10:50:56.742Z,5.10
2022-12-26T10:53:23.346Z,6.00
2022-12-26T10:55:49.742Z,6.00
2022-12-26T10:58:21.494Z,4.90
2022-12-26T11:00:47.961Z,6.40
2022-12-26T11:03:17.159Z,6.00
2022-12-26T11:08:43.002Z,5.50
2022-12-26T11:11:21.560Z,5.90
2022-12-26T11:13:57.730Z,4.70
2022-12-26T11:16:38.264Z,3.90
2022-12-26T11:19:04.863Z,4.10
2022-12-26T11:21:32.856Z,3.70
2022-12-26T11:24:08.421Z,3.70
2022-12-26T11:26:35.508Z,3.80
2022-12-26T11:29:12.889Z,4.20
2022-12-26T11:31:42.680Z,3.70
2022-12-26T11:34:17.268Z,3.50
2022-12-26T11:36:50.818Z,3.40
2022-12-26T11:39:24.547Z,3.40
2022-12-26T11:41:52.308Z,3.40
2022-12-26T11:44:29.366Z,3.10
2022-12-26T11:47:12.264Z,3.50
2022-12-26T11:49:46.038Z,3.00
2022-12-26T11:52:37.674Z,3.20
2022-12-26T11:55:22.555Z,3.30
2022-12-26T11:58:08.433Z,3.40
2022-12-26T12:00:43.524Z,3.20
2022-12-26T12:03:18.087Z,2.70
2022-12-26T12:05:59.761Z,2.50
2022-12-26T12:08:37.413Z,2.70
2022-12-26T12:11:17.027Z,2.60
2022-12-26T12:14:02.346Z,2.50
2022-12-26T12:17:13.313Z,2.60
2022-12-26T12:19:58.178Z,2.00
2022-12-26T12:22:53.259Z,2.50
2022-12-26T12:25:39.856Z,1.90
2022-12-26T12:28:33.733Z,2.00
2022-12-26T12:31:11.414Z,2.20
2022-12-26T12:33:56.651Z,2.10
2022-12-26T12:36:34.102Z,2.00
2022-12-26T12:39:16.790Z,2.10
2022-12-26T12:42:00.978Z,2.50
2022-12-26T12:45:20.146Z,2.30
2022-12-26T12:48:04.563Z,2.40
2022-12-26T12:50:41.977Z,2.20
2022-12-26T12:53:23.893Z,2.50
2022-12-26T12:56:29.880Z,5.40
2022-12-26T12:59:17.450Z,3.20
2022-12-26T13:01:47.889Z,2.30
2022-12-26T13:04:26.872Z,2.50
2022-12-26T13:07:14.514Z,2.60
2022-12-26T13:09:48.534Z,3.00
2022-12-26T13:12:21.151Z,3.40
2022-12-26T13:14:57.082Z,2.50
2022-12-26T13:17:37.008Z,2.60
2022-12-26T13:20:09.715Z,2.10
2022-12-26T13:23:05.767Z,2.00
2022-12-26T13:25:37.072Z,1.90
2022-12-26T13:28:11.781Z,2.00
2022-12-26T13:30:39.499Z,2.40
2022-12-26T13:33:06.489Z,1.80
2022-12-26T13:35:57.166Z,1.80
2022-12-26T13:38:26.302Z,2.10
2022-12-26T13:41:20.428Z,1.90
2022-12-26T13:44:23.105Z,2.00
2022-12-26T13:46:49.449Z,2.00
2022-12-26T13:49:36.450Z,2.00
2022-12-26T13:52:11.923Z,2.10
2022-12-26T13:54:58.432Z,2.30
2022-12-26T13:57:44.505Z,2.70
2022-12-26T14:00:19.958Z,2.70
2022-12-26T14:03:16.252Z,2.80
2022-12-26T14:05:48.541Z,3.90
2022-12-26T14:08:49.911Z,3.30
2022-12-26T14:11:22.740Z,3.60
2022-12-26T14:14:18.266Z,3.40
2022-12-26T14:17:08.282Z,2.80
2022-12-26T14:19:57.002Z,3.00
2022-12-26T14:22:50.826Z,2.30
2022-12-26T14:25:23.405Z,3.20
2022-12-26T14:28:10.733Z,2.90
2022-12-26T14:30:55.093Z,2.90
2022-12-26T14:33:38.372Z,2.30
2022-12-26T14:36:19.899Z,2.10
2022-12-26T14:39:00.324Z,2.40
2022-12-26T14:41:46.232Z,1.60
2022-12-26T14:44:21.482Z,2.20
2022-12-26T14:46:51.431Z,1.60
2022-12-26T14:49:39.899Z,1.70
2022-12-26T14:52:37.193Z,1.40
2022-12-26T14:55:42.447Z,1.00
2022-12-26T14:58:20.992Z,0.90
2022-12-26T15:00:47.955Z,1.00
2022-12-26T15:03:25.842Z,0.90
2022-12-26T15:05:56.228Z,1.30
2022-12-26T15:08:34.716Z,1.10
2022-12-26T15:11:03.991Z,1.20
2022-12-26T15:13:48.046Z,0.90
2022-12-26T15:16:26.546Z,0.80
2022-12-26T15:19:08.254Z,1.20
2022-12-26T15:21:56.712Z,1.40
2022-12-26T15:25:17.624Z,1.20
2022-12-26T15:27:41.027Z,0.90
2022-12-26T15:30:20.575Z,1.10
2022-12-26T15:33:02.246Z,1.10
2022-12-26T15:35:46.349Z,1.20
2022-12-26T15:38:21.259Z,1.20
2022-12-26T15:41:09.044Z,1.10
2022-12-26T15:44:04.050Z,1.30
2022-12-26T15:46:33.538Z,1.10
2022-12-26T15:49:15.991Z,2.00
2022-12-26T15:52:00.787Z,0.80
2022-12-26T15:55:04.867Z,1.30
2022-12-26T15:57:41.047Z,1.40
2022-12-26T16:00:27.045Z,1.30
2022-12-26T16:03:15.243Z,1.10
2022-12-26T16:05:51.321Z,0.80
2022-12-26T16:08:17.610Z,1.20
2022-12-26T16:10:44.222Z,1.50
2022-12-26T16:13:13.433Z,1.40
2022-12-26T16:15:52.457Z,1.10
2022-12-26T16:18:23.194Z,1.00
2022-12-26T16:21:10.766Z,0.90
2022-12-26T16:23:40.226Z,1.20
2022-12-26T16:26:07.081Z,1.10
2022-12-26T16:28:41.788Z,1.10
2022-12-26T16:31:09.662Z,1.00
2022-12-26T16:33:41.213Z,1.20
2022-12-26T16:36:09.770Z,1.00
2022-12-26T16:38:37.356Z,1.50
2022-12-26T16:41:19.235Z,1.20
2022-12-26T16:43:46.261Z,1.30
2022-12-26T16:46:14.257Z,0.80
2022-12-26T16:48:42.074Z,1.10
2022-12-26T16:51:31.298Z,1.00
2022-12-26T16:54:24.364Z,0.90
2022-12-26T16:57:03.216Z,1.10
2022-12-26T16:59:38.244Z,1.30
2022-12-26T17:02:05.140Z,1.60
2022-12-26T17:04:31.933Z,1.30
2022-12-26T17:07:07.927Z,1.60
2022-12-26T17:09:46.962Z,1.30
2022-12-26T17:12:38.533Z,1.20
2022-12-26T17:15:06.476Z,1.20
2022-12-26T17:17:38.107Z,1.50
2022-12-26T17:20:22.987Z,1.40
2022-12-26T17:22:51.452Z,1.40
2022-12-26T17:25:17.855Z,1.70
2022-12-26T17:27:46.197Z,1.30
2022-12-26T17:30:20.381Z,1.80
2022-12-26T17:32:47.843Z,2.20
2022-12-26T17:35:18.914Z,1.80
2022-12-26T17:37:46.783Z,1.70
2022-12-26T17:40:16.258Z,1.50
2022-12-26T17:42:55.005Z,1.80
2022-12-26T17:45:24.740Z,2.20
2022-12-26T17:47:55.375Z,2.00
2022-12-26T17:50:23.921Z,1.60
2022-12-26T17:52:51.342Z,1.80
2022-12-26T17:55:25.091Z,2.30
2022-12-26T17:57:51.923Z,1.60
2022-12-26T18:00:21.655Z,2.40
2022-12-26T18:02:48.718Z,4.70
2022-12-26T18:05:15.789Z,2.30
2022-12-26T18:07:43.819Z,2.80
2022-12-26T18:10:37.480Z,2.20
2022-12-26T18:13:04.209Z,2.20
2022-12-26T18:15:31.632Z,3.20
2022-12-26T18:17:58.086Z,2.60
2022-12-26T18:20:28.316Z,2.30
2022-12-26T18:22:55.092Z,2.20
2022-12-26T18:25:25.567Z,2.20
2022-12-26T18:27:52.642Z,2.30
2022-12-26T18:30:24.908Z,2.20
2022-12-26T18:32:52.775Z,2.20
2022-12-26T18:35:20.260Z,2.20
2022-12-26T18:37:50.232Z,1.80
2022-12-26T18:40:31.920Z,2.10
2022-12-26T18:42:58.515Z,2.40
2022-12-26T18:45:25.923Z,2.30
2022-12-26T18:47:52.523Z,2.50
2022-12-26T18:50:19.843Z,2.60
2022-12-26T18:52:51.578Z,2.40
2022-12-26T18:55:20.058Z,2.70
2022-12-26T18:57:46.608Z,2.30
2022-12-26T19:00:15.590Z,2.50
2022-12-26T19:02:42.335Z,1.80
2022-12-26T19:05:21.460Z,2.20
2022-12-26T19:07:50.241Z,2.70
2022-12-26T19:10:18.748Z,2.80
2022-12-26T19:12:45.409Z,2.50
2022-12-26T19:15:13.079Z,2.50
2022-12-26T19:17:41.211Z,2.70
2022-12-26T19:20:09.826Z,2.30
2022-12-26T19:22:36.561Z,2.40
2022-12-26T19:25:03.161Z,2.30
2022-12-26T19:27:29.798Z,2.50
2022-12-26T19:29:56.238Z,3.20
2022-12-26T19:32:22.761Z,3.00
2022-12-26T19:34:49.250Z,3.10
2022-12-26T19:37:15.702Z,3.00
2022-12-26T19:39:42.152Z,2.70
2022-12-26T19:42:08.775Z,3.00
2022-12-26T19:44:35.290Z,2.90
2022-12-26T19:47:11.868Z,2.80
2022-12-26T19:49:39.615Z,2.90
2022-12-26T19:52:06.150Z,2.20
2022-12-26T19:54:32.532Z,2.60
2022-12-26T19:56:58.987Z,3.00
2022-12-26T19:59:25.428Z,3.00
2022-12-26T20:01:51.958Z,2.90
2022-12-26T20:04:18.825Z,3.70
2022-12-26T20:06:45.239Z,3.20
2022-12-26T20:09:16.228Z,3.00
2022-12-26T20:11:51.180Z,2.50
2022-12-26T20:14:19.544Z,2.40
2022-12-26T20:17:08.643Z,2.80
2022-12-26T20:19:36.191Z,2.70
2022-12-26T20:22:03.298Z,2.30
2022-12-26T20:24:29.697Z,2.40
2022-12-26T20:26:56.430Z,1.90
2022-12-26T20:29:23.164Z,2.70
2022-12-26T20:31:49.881Z,2.80
2022-12-26T20:34:16.788Z,2.80
2022-12-26T20:36:43.237Z,2.20
2022-12-26T20:39:16.359Z,2.30
2022-12-26T20:41:43.355Z,2.20
2022-12-26T20:44:15.487Z,2.10
2022-12-26T20:46:42.884Z,2.30
2022-12-26T20:49:10.171Z,2.20
2022-12-26T20:51:38.801Z,2.10
2022-12-26T20:54:07.530Z,2.00
2022-12-26T20:56:35.228Z,2.10
2022-12-26T20:59:01.861Z,2.30
2022-12-26T21:01:28.703Z,2.30
2022-12-26T21:03:56.726Z,2.10
2022-12-26T21:06:25.437Z,2.00
2022-12-26T21:08:53.399Z,1.90
2022-12-26T21:11:32.065Z,2.10
2022-12-26T21:14:05.285Z,2.20
2022-12-26T21:16:41.048Z,2.40
2022-12-26T21:19:14.744Z,2.00
2022-12-26T21:21:44.074Z,2.20
2022-12-26T21:24:13.615Z,1.90
2022-12-26T21:26:42.017Z,1.90
2022-12-26T21:29:14.436Z,1.70
2022-12-26T21:31:41.418Z,2.50
2022-12-26T21:34:08.829Z,1.70
2022-12-26T21:36:35.445Z,2.10
2022-12-26T21:39:09.537Z,1.80
2022-12-26T21:41:39.255Z,1.70
2022-12-26T21:44:05.907Z,1.50
2022-12-26T21:46:32.632Z,1.70
2022-12-26T21:49:00.677Z,1.70
2022-12-26T21:51:27.149Z,1.80
2022-12-26T21:54:13.585Z,1.70
2022-12-26T21:56:40.062Z,1.90
2022-12-26T21:59:25.069Z,1.80
2022-12-26T22:01:51.621Z,2.30
2022-12-26T22:04:21.101Z,2.20
2022-12-26T22:06:50.045Z,2.70
2022-12-26T22:09:17.247Z,2.30
2022-12-26T22:12:03.551Z,1.80
2022-12-26T22:14:30.142Z,1.90
2022-12-26T22:16:57.567Z,2.20
2022-12-26T22:19:25.420Z,2.10
2022-12-26T22:21:53.106Z,2.00
2022-12-26T22:24:21.739Z,2.10
2022-12-26T22:26:48.434Z,1.90
2022-12-26T22:29:15.139Z,2.50
2022-12-26T22:31:41.621Z,2.50
2022-12-26T22:34:12.295Z,2.00
2022-12-26T22:36:39.389Z,2.40
2022-12-26T22:39:06.244Z,2.40
2022-12-26T22:41:33.535Z,1.70
2022-12-26T22:44:00.005Z,1.70
2022-12-26T22:46:26.545Z,1.90
2022-12-26T22:48:53.132Z,1.90
2022-12-26T22:51:22.871Z,1.90
2022-12-26T22:53:53.101Z,1.80
2022-12-26T22:56:19.862Z,2.20
2022-12-26T22:58:46.232Z,1.70
2022-12-26T23:01:14.856Z,2.30
2022-12-26T23:03:41.686Z,1.70
2022-12-26T23:06:28.023Z,2.00
2022-12-26T23:08:57.003Z,1.80
2022-12-26T23:11:31.954Z,1.90
2022-12-26T23:14:01.796Z,2.10
2022-12-26T23:16:34.147Z,1.70
2022-12-26T23:19:34.884Z,2.70
2022-12-26T23:22:02.431Z,2.30
2022-12-26T23:24:31.109Z,1.90
2022-12-26T23:27:19.353Z,2.40
2022-12-26T23:30:04.338Z,2.00
2022-12-26T23:32:30.854Z,2.20
2022-12-26T23:34:57.238Z,2.20
2022-12-26T23:37:24.223Z,2.40
2022-12-26T23:39:50.609Z,2.40
2022-12-26T23:42:17.076Z,2.30
2022-12-26T23:44:43.482Z,1.80
2022-12-26T23:47:09.918Z,2.20
2022-12-26T23:49:36.446Z,1.70
2022-12-26T23:52:03.002Z,2.00
2022-12-26T23:54:29.483Z,1.50
2022-12-26T23:56:55.945Z,1.70
2022-12-26T23:59:22.700Z,2.20
